Time;durP1;ratioP1;P1;durP2;ratioP2;P2;SDS_P1;SDS_P2;PMS_P1;PMS_P2;Temp;Humidity;BMP_temperature;BMP_pressure;BME280_temperature;BME280_humidity;BME280_pressure;Samples;Min_cycle;Max_cycle;Signal;HPM_P1;HPM_P2
2023/05/30 00:00:56;;;;;;;7.68;2.92;;;16.10;73.00;;;;;;4996803;28;20287;-84
2023/05/30 00:03:23;;;;;;;7.28;2.50;;;16.10;73.00;;;;;;4997748;28;20377;-83
2023/05/30 00:05:49;;;;;;;7.28;2.60;;;16.10;73.10;;;;;;4998150;28;20022;-83
2023/05/30 00:08:14;;;;;;;7.47;2.60;;;16.10;73.10;;;;;;4997787;28;20022;-83
2023/05/30 00:10:40;;;;;;;8.98;3.00;;;16.10;73.10;;;;;;4997434;28;20070;-83
2023/05/30 00:13:06;;;;;;;8.77;2.88;;;16.10;73.10;;;;;;5016524;28;20080;-82
2023/05/30 00:15:33;;;;;;;6.72;2.45;;;16.10;73.20;;;;;;5001153;28;20030;-82
2023/05/30 00:18:00;;;;;;;8.73;2.97;;;16.10;73.20;;;;;;5000996;28;20036;-83
2023/05/30 00:20:29;;;;;;;6.43;2.55;;;16.10;73.20;;;;;;5000914;28;20022;-82
2023/05/30 00:22:58;;;;;;;7.60;3.13;;;16.00;73.20;;;;;;5018490;28;20030;-83
2023/05/30 00:25:24;;;;;;;8.20;3.17;;;16.00;73.20;;;;;;5000582;28;20076;-82
2023/05/30 00:27:49;;;;;;;5.57;2.30;;;16.10;73.30;;;;;;5000785;28;20030;-83
2023/05/30 00:30:15;;;;;;;8.43;2.78;;;16.00;73.30;;;;;;5000337;28;20482;-83
2023/05/30 00:32:40;;;;;;;6.38;2.60;;;16.00;73.30;;;;;;5017885;28;20160;-82
2023/05/30 00:35:06;;;;;;;7.20;2.92;;;16.00;73.40;;;;;;5017847;28;20030;-82
2023/05/30 00:37:32;;;;;;;6.43;2.38;;;16.00;73.40;;;;;;5000144;28;20557;-82
2023/05/30 00:39:57;;;;;;;6.93;2.78;;;16.00;73.40;;;;;;5017673;28;20099;-83
2023/05/30 00:42:23;;;;;;;7.45;2.50;;;16.00;73.40;;;;;;4999694;28;20045;-82
2023/05/30 00:44:48;;;;;;;5.95;2.63;;;16.00;73.40;;;;;;4999889;28;20110;-82
2023/05/30 00:47:14;;;;;;;7.38;2.67;;;16.00;73.50;;;;;;4998944;28;20018;-83
2023/05/30 00:49:40;;;;;;;6.47;3.05;;;16.00;73.40;;;;;;4999648;28;20102;-82
2023/05/30 00:52:07;;;;;;;7.05;2.72;;;16.00;73.40;;;;;;4999293;28;20041;-82
2023/05/30 00:54:32;;;;;;;8.27;3.10;;;16.00;73.40;;;;;;5016419;28;20402;-82
2023/05/30 00:56:58;;;;;;;10.23;4.00;;;16.00;73.30;;;;;;4999282;28;20022;-82
2023/05/30 00:59:24;;;;;;;6.93;2.90;;;16.10;73.40;;;;;;4998967;28;20478;-82
2023/05/30 01:01:50;;;;;;;7.68;2.90;;;16.10;73.30;;;;;;4998919;28;20113;-82
2023/05/30 01:04:15;;;;;;;7.63;2.53;;;16.10;73.30;;;;;;5016234;28;20029;-82
2023/05/30 01:06:41;;;;;;;6.55;3.00;;;16.10;73.40;;;;;;4998872;28;20022;-82
2023/05/30 01:09:07;;;;;;;7.88;3.00;;;16.10;73.30;;;;;;4998380;28;20090;-82
2023/05/30 01:12:06;;;;;;;9.45;3.17;;;16.10;73.30;;;;;;4998435;28;20022;-83
2023/05/30 01:14:40;;;;;;;6.80;2.67;;;16.20;73.30;;;;;;5015956;28;20025;-82
2023/05/30 01:17:24;;;;;;;7.97;3.03;;;16.20;73.30;;;;;;4998152;28;20866;-82
2023/05/30 01:20:09;;;;;;;5.93;2.90;;;16.20;73.30;;;;;;4997928;28;20040;-82
2023/05/30 01:23:04;;;;;;;6.68;2.67;;;16.20;73.30;;;;;;5015640;28;20021;-82
2023/05/30 01:25:52;;;;;;;7.15;2.80;;;16.20;73.40;;;;;;4997191;28;20026;-82
2023/05/30 01:28:21;;;;;;;8.90;2.90;;;16.20;73.50;;;;;;4997760;28;20084;-82
2023/05/30 01:30:51;;;;;;;7.30;3.03;;;16.20;73.50;;;;;;4997685;28;20026;-82
2023/05/30 01:33:19;;;;;;;7.45;3.25;;;16.20;73.30;;;;;;4997332;28;20490;-83
2023/05/30 01:35:45;;;;;;;8.27;3.50;;;16.10;73.30;;;;;;4997643;28;20030;-83
2023/05/30 01:38:11;;;;;;;8.55;3.30;;;16.10;73.40;;;;;;4997589;28;20049;-82
2023/05/30 01:40:38;;;;;;;8.65;3.40;;;16.10;73.50;;;;;;5015167;28;20497;-82
2023/05/30 01:43:12;;;;;;;8.45;3.22;;;16.10;73.50;;;;;;5014964;28;20109;-82
2023/05/30 01:46:01;;;;;;;6.35;2.85;;;16.10;73.60;;;;;;5015168;28;20061;-82
2023/05/30 01:48:42;;;;;;;8.23;3.70;;;16.10;73.70;;;;;;4997211;28;20588;-82
2023/05/30 01:51:14;;;;;;;7.80;3.38;;;16.10;73.70;;;;;;5015103;28;20141;-82
2023/05/30 01:53:46;;;;;;;6.82;3.00;;;16.10;73.70;;;;;;5014285;28;20018;-82
2023/05/30 01:56:14;;;;;;;7.63;2.72;;;16.00;73.70;;;;;;5014930;28;20255;-82
2023/05/30 01:58:40;;;;;;;6.85;2.70;;;16.00;74.30;;;;;;4997183;28;20537;-82
2023/05/30 02:01:07;;;;;;;8.23;3.05;;;16.00;73.80;;;;;;4996973;28;20049;-82
2023/05/30 02:03:33;;;;;;;8.70;3.28;;;16.00;73.80;;;;;;4996569;28;20053;-83
2023/05/30 02:06:00;;;;;;;6.88;2.90;;;16.00;73.80;;;;;;4996945;28;20500;-82
2023/05/30 02:08:26;;;;;;;7.35;3.17;;;16.00;73.80;;;;;;4996739;28;20022;-82
2023/05/30 02:10:52;;;;;;;8.82;2.92;;;16.00;73.90;;;;;;4996827;28;20029;-82
2023/05/30 02:13:17;;;;;;;6.95;2.83;;;16.00;73.90;;;;;;4996264;28;20030;-83
2023/05/30 02:15:43;;;;;;;7.25;3.20;;;16.00;73.90;;;;;;4996487;28;20057;-82
2023/05/30 02:18:08;;;;;;;6.70;3.13;;;16.00;73.90;;;;;;4996521;28;20115;-83
2023/05/30 02:20:34;;;;;;;8.63;3.70;;;16.00;74.00;;;;;;5013908;28;20072;-83
2023/05/30 02:23:00;;;;;;;7.25;3.10;;;16.00;73.90;;;;;;4995961;28;20018;-82
2023/05/30 02:25:26;;;;;;;7.38;2.95;;;16.00;74.00;;;;;;5013717;28;20143;-82
2023/05/30 02:27:51;;;;;;;7.47;2.78;;;16.00;74.00;;;;;;4996186;28;20117;-82
2023/05/30 02:30:17;;;;;;;6.07;2.88;;;16.00;74.00;;;;;;5027300;23;20077;-84
2023/05/30 02:32:43;;;;;;;9.90;3.28;;;16.00;74.00;;;;;;5011811;28;20375;-84
2023/05/30 02:35:09;;;;;;;8.07;3.67;;;16.00;74.00;;;;;;5012082;28;20025;-84
2023/05/30 02:37:35;;;;;;;7.95;3.10;;;16.00;74.00;;;;;;5011130;28;20033;-85
2023/05/30 02:40:01;;;;;;;5.97;2.70;;;16.00;74.00;;;;;;5012010;28;20397;-85
2023/05/30 02:42:26;;;;;;;7.00;2.47;;;16.00;74.10;;;;;;5011934;28;20026;-84
2023/05/30 02:44:52;;;;;;;8.32;3.22;;;16.00;74.20;;;;;;5013383;28;20097;-85
2023/05/30 02:47:17;;;;;;;6.82;3.28;;;16.00;74.10;;;;;;5012046;28;20064;-84
2023/05/30 02:49:43;;;;;;;6.43;2.75;;;16.00;74.00;;;;;;5012052;28;20402;-84
2023/05/30 02:52:09;;;;;;;7.13;3.10;;;16.00;74.00;;;;;;5011541;28;20041;-83
2023/05/30 02:54:34;;;;;;;6.88;3.13;;;16.00;73.90;;;;;;5012040;28;20026;-84
2023/05/30 02:57:06;;;;;;;7.57;3.00;;;16.10;74.00;;;;;;5011737;28;20030;-85
2023/05/30 02:59:31;;;;;;;7.07;2.97;;;16.10;74.00;;;;;;5007760;28;20029;-84
2023/05/30 03:01:57;;;;;;;7.50;2.83;;;16.10;73.90;;;;;;5010523;28;20375;-84
2023/05/30 03:04:22;;;;;;;8.13;3.17;;;16.10;73.90;;;;;;5011217;28;20030;-86
2023/05/30 03:06:50;;;;;;;9.13;3.40;;;16.10;73.90;;;;;;5011773;28;20108;-83
2023/05/30 03:20:36;;;;;;;8.95;3.72;;;16.10;73.40;;;;;;5109454;27;20396;-82
2023/05/30 03:23:02;;;;;;;7.22;3.25;;;16.20;73.80;;;;;;5131309;22;20049;-83
2023/05/30 03:25:28;;;;;;;7.93;3.25;;;16.10;73.80;;;;;;5071114;28;20035;-83
2023/05/30 03:27:53;;;;;;;7.65;3.22;;;16.10;73.90;;;;;;5089278;28;20055;-83
2023/05/30 03:30:22;;;;;;;8.07;3.10;;;16.10;73.90;;;;;;5071229;28;20016;-83
2023/05/30 03:32:48;;;;;;;8.60;3.35;;;16.10;73.90;;;;;;5071483;28;20024;-84
2023/05/30 03:35:16;;;;;;;8.00;3.40;;;16.10;73.90;;;;;;5091104;28;20024;-84
2023/05/30 03:37:41;;;;;;;6.43;3.42;;;16.10;73.90;;;;;;5090998;28;20382;-84
2023/05/30 03:40:08;;;;;;;6.75;3.30;;;16.10;74.00;;;;;;5090790;28;20031;-84
2023/05/30 03:42:34;;;;;;;9.18;4.05;;;16.10;74.00;;;;;;5091109;28;20110;-84
2023/05/30 03:45:00;;;;;;;8.45;3.70;;;16.10;74.10;;;;;;5090798;28;20042;-86
2023/05/30 03:47:26;;;;;;;8.52;3.75;;;16.10;74.10;;;;;;5090916;28;20550;-84
2023/05/30 03:49:52;;;;;;;7.80;3.90;;;16.10;74.10;;;;;;5090311;28;20127;-84
2023/05/30 03:52:17;;;;;;;8.35;3.65;;;16.00;74.10;;;;;;5090809;28;20077;-85
2023/05/30 03:54:44;;;;;;;7.47;3.35;;;16.00;74.10;;;;;;5108826;28;20028;-82
2023/05/30 03:57:10;;;;;;;8.23;3.40;;;16.00;74.20;;;;;;5086708;28;20026;-82
2023/05/30 03:59:36;;;;;;;6.95;3.35;;;16.00;74.20;;;;;;5085243;28;20115;-83
2023/05/30 04:02:01;;;;;;;6.90;3.08;;;16.00;74.30;;;;;;5081323;28;20131;-82
2023/05/30 04:04:27;;;;;;;8.60;3.33;;;16.00;74.20;;;;;;5084651;28;20032;-83
2023/05/30 04:06:53;;;;;;;7.70;3.42;;;16.00;74.30;;;;;;5082122;28;20028;-81
2023/05/30 04:09:19;;;;;;;7.65;3.78;;;16.00;74.30;;;;;;5064906;28;20036;-84
2023/05/30 04:11:45;;;;;;;8.65;4.05;;;16.00;74.30;;;;;;5064974;28;20029;-84
2023/05/30 04:14:10;;;;;;;8.10;3.65;;;16.00;74.30;;;;;;5065025;28;20131;-83
2023/05/30 04:16:36;;;;;;;8.00;3.75;;;16.00;74.30;;;;;;5065386;28;20118;-83
2023/05/30 04:19:01;;;;;;;7.90;4.10;;;16.00;74.30;;;;;;5083640;28;20059;-82
2023/05/30 04:21:27;;;;;;;7.80;3.63;;;16.00;74.30;;;;;;5070846;28;20323;-83
2023/05/30 04:23:53;;;;;;;8.65;3.85;;;16.00;74.30;;;;;;5051180;28;20127;-84
2023/05/30 04:26:18;;;;;;;7.65;3.58;;;16.00;74.30;;;;;;5051992;28;20097;-84
2023/05/30 04:28:44;;;;;;;8.55;4.13;;;16.00;74.30;;;;;;5051217;28;20394;-85
2023/05/30 04:31:10;;;;;;;9.98;4.18;;;16.00;74.30;;;;;;5051402;28;20028;-83
2023/05/30 04:33:37;;;;;;;7.18;3.70;;;16.00;74.30;;;;;;5051024;28;20020;-84
2023/05/30 04:36:08;;;;;;;10.02;4.00;;;16.00;74.30;;;;;;5051594;28;20499;-84
2023/05/30 04:38:34;;;;;;;9.00;4.28;;;16.00;74.30;;;;;;5051084;28;20035;-83
2023/05/30 04:41:02;;;;;;;7.72;3.90;;;16.00;74.30;;;;;;5051691;28;20560;-84
2023/05/30 04:43:34;;;;;;;10.07;3.97;;;16.00;74.30;;;;;;5051890;28;20036;-80
2023/05/30 04:46:00;;;;;;;7.63;3.63;;;16.00;74.30;;;;;;5050357;28;20086;-81
2023/05/30 04:48:27;;;;;;;8.68;4.60;;;16.00;74.20;;;;;;5052642;28;20070;-82
2023/05/30 04:50:53;;;;;;;9.20;4.53;;;16.00;74.20;;;;;;5052227;28;20024;-82
2023/05/30 04:53:21;;;;;;;9.93;4.75;;;16.00;74.20;;;;;;5052949;28;20024;-84
2023/05/30 04:55:46;;;;;;;9.50;4.55;;;16.00;74.20;;;;;;5050971;28;20031;-83
2023/05/30 04:58:13;;;;;;;8.00;4.10;;;16.00;74.20;;;;;;5050496;28;20032;-80
2023/05/30 05:00:39;;;;;;;8.23;4.50;;;16.10;74.20;;;;;;5050829;28;20090;-83
2023/05/30 05:03:06;;;;;;;9.30;4.75;;;16.10;74.20;;;;;;5068517;28;20401;-81
2023/05/30 05:05:32;;;;;;;8.30;4.10;;;16.10;74.10;;;;;;5050576;28;20024;-85
2023/05/30 05:07:57;;;;;;;9.15;4.25;;;16.10;74.10;;;;;;5050828;28;20032;-84
2023/05/30 05:10:23;;;;;;;8.15;4.10;;;16.10;74.10;;;;;;5050628;28;20012;-81
2023/05/30 05:12:48;;;;;;;8.93;4.07;;;16.10;74.00;;;;;;5050075;28;20487;-83
2023/05/30 05:15:14;;;;;;;7.22;3.50;;;16.10;74.00;;;;;;5050296;28;20440;-84
2023/05/30 05:17:39;;;;;;;7.70;3.88;;;16.20;74.00;;;;;;5072067;28;20020;-85
2023/05/30 05:20:06;;;;;;;11.70;4.40;;;16.20;73.90;;;;;;5073353;28;20422;-84
2023/05/30 05:22:32;;;;;;;10.07;4.28;;;16.20;73.80;;;;;;5055290;28;20029;-84
2023/05/30 05:24:58;;;;;;;10.15;4.07;;;16.20;73.70;;;;;;5055284;28;20121;-84
2023/05/30 05:27:26;;;;;;;8.43;4.00;;;16.20;73.60;;;;;;5064118;28;20024;-84
2023/05/30 05:29:51;;;;;;;10.38;4.35;;;16.20;73.70;;;;;;5074715;28;20085;-83
2023/05/30 05:32:17;;;;;;;9.05;4.20;;;16.20;73.70;;;;;;5078921;28;20024;-85
2023/05/30 05:34:42;;;;;;;9.93;4.50;;;16.20;73.80;;;;;;5054953;28;20027;-83
2023/05/30 05:37:08;;;;;;;9.80;4.78;;;16.20;74.00;;;;;;5055123;28;20115;-83
2023/05/30 05:39:34;;;;;;;10.27;4.75;;;16.20;74.00;;;;;;5054852;28;20024;-83
2023/05/30 05:42:01;;;;;;;10.07;4.68;;;16.10;74.00;;;;;;5055056;28;20035;-83
2023/05/30 05:44:27;;;;;;;10.57;4.57;;;16.10;74.10;;;;;;5054858;28;20025;-83
2023/05/30 05:46:52;;;;;;;8.23;4.30;;;16.10;74.10;;;;;;5054889;28;20112;-83
2023/05/30 05:49:18;;;;;;;10.90;4.25;;;16.10;74.20;;;;;;5072557;28;20066;-83
2023/05/30 05:51:43;;;;;;;9.02;3.92;;;16.10;74.20;;;;;;5054748;28;20028;-83
2023/05/30 05:54:09;;;;;;;8.55;3.92;;;16.10;74.20;;;;;;5073008;28;20713;-83
2023/05/30 05:56:36;;;;;;;9.68;4.50;;;16.10;74.30;;;;;;5072679;28;20028;-83
2023/05/30 05:59:01;;;;;;;9.50;4.50;;;16.10;74.40;;;;;;5054619;28;20085;-83
2023/05/30 06:01:26;;;;;;;8.25;3.60;;;16.10;74.40;;;;;;5054536;28;20507;-83
2023/05/30 06:03:52;;;;;;;7.97;4.15;;;16.10;74.50;;;;;;5054591;28;20035;-83
2023/05/30 06:06:17;;;;;;;8.55;3.97;;;16.10;74.50;;;;;;5072513;28;20162;-84
2023/05/30 06:08:45;;;;;;;8.55;3.95;;;16.10;74.50;;;;;;5072163;28;20379;-83
2023/05/30 06:11:10;;;;;;;10.00;4.00;;;16.10;74.50;;;;;;5054531;28;20610;-83
2023/05/30 06:13:36;;;;;;;7.22;3.65;;;16.10;74.50;;;;;;5054368;28;20027;-83
2023/05/30 06:16:01;;;;;;;8.35;3.88;;;16.10;74.50;;;;;;5072265;28;20029;-84
2023/05/30 06:18:27;;;;;;;8.45;4.40;;;16.10;74.50;;;;;;5054415;28;20070;-83
2023/05/30 06:20:52;;;;;;;7.20;3.92;;;16.10;74.50;;;;;;5054181;28;20020;-83
2023/05/30 06:23:19;;;;;;;9.30;4.20;;;16.10;74.50;;;;;;5054095;28;20052;-83
2023/05/30 06:25:45;;;;;;;8.50;3.85;;;16.10;74.50;;;;;;5054077;28;20521;-83
2023/05/30 06:28:10;;;;;;;7.15;4.10;;;16.10;75.00;;;;;;5054130;28;20024;-83
2023/05/30 06:30:36;;;;;;;7.80;4.25;;;16.10;74.40;;;;;;5054007;28;20028;-83
2023/05/30 06:33:03;;;;;;;8.15;4.40;;;16.20;74.50;;;;;;5054097;28;20021;-83
2023/05/30 06:35:28;;;;;;;9.25;4.35;;;16.20;74.50;;;;;;5054036;28;20024;-83
2023/05/30 06:37:54;;;;;;;7.65;4.10;;;16.20;74.50;;;;;;5072155;28;20021;-84
2023/05/30 06:40:19;;;;;;;8.27;4.32;;;16.20;74.40;;;;;;5053825;28;20028;-83
2023/05/30 06:42:45;;;;;;;8.30;4.05;;;16.20;74.30;;;;;;5053658;28;20474;-84
2023/05/30 06:45:10;;;;;;;8.95;4.70;;;16.20;74.30;;;;;;5071945;28;20016;-83
2023/05/30 06:47:36;;;;;;;8.55;4.80;;;16.20;74.30;;;;;;5053880;28;20021;-83
2023/05/30 06:50:01;;;;;;;7.80;4.57;;;16.20;74.20;;;;;;5071595;28;20025;-84
2023/05/30 06:52:27;;;;;;;8.25;4.10;;;16.20;74.10;;;;;;5053739;28;20406;-83
2023/05/30 06:54:52;;;;;;;9.25;4.28;;;16.30;74.10;;;;;;5053828;28;20028;-83
2023/05/30 06:57:18;;;;;;;8.43;4.22;;;16.30;73.90;;;;;;5053836;28;20134;-84
2023/05/30 06:59:43;;;;;;;9.52;4.90;;;16.30;73.80;;;;;;5053644;28;20086;-83
2023/05/30 07:02:10;;;;;;;7.03;3.92;;;16.40;73.70;;;;;;5053811;28;20039;-84
2023/05/30 07:04:36;;;;;;;9.55;4.72;;;16.40;73.60;;;;;;5053726;28;20485;-83
2023/05/30 07:07:02;;;;;;;9.75;4.57;;;16.40;73.60;;;;;;5053797;28;20020;-83
2023/05/30 07:09:27;;;;;;;7.85;4.07;;;16.40;73.50;;;;;;5053602;28;20374;-83
2023/05/30 07:11:53;;;;;;;8.43;4.25;;;16.50;73.50;;;;;;5053702;28;20017;-83
2023/05/30 07:14:19;;;;;;;9.45;4.72;;;16.50;73.30;;;;;;5053556;28;20083;-83
2023/05/30 07:16:44;;;;;;;9.88;5.38;;;16.50;73.30;;;;;;5053790;28;20020;-83
2023/05/30 07:19:10;;;;;;;9.40;5.28;;;16.50;73.40;;;;;;5053367;28;20048;-83
2023/05/30 07:21:36;;;;;;;8.20;4.28;;;16.50;73.40;;;;;;5071321;28;20067;-83
2023/05/30 07:24:01;;;;;;;8.70;4.25;;;16.50;73.40;;;;;;5053271;28;20028;-84
2023/05/30 07:26:27;;;;;;;8.70;4.82;;;16.50;73.30;;;;;;5053580;28;20025;-85
2023/05/30 07:28:52;;;;;;;8.07;5.00;;;16.50;73.30;;;;;;5071378;28;20025;-83
2023/05/30 07:31:18;;;;;;;8.05;5.22;;;16.60;73.30;;;;;;5053310;28;20551;-83
2023/05/30 07:33:44;;;;;;;8.35;4.47;;;16.60;73.30;;;;;;5071462;28;20131;-83
2023/05/30 07:36:10;;;;;;;8.35;4.60;;;16.60;73.20;;;;;;5053461;28;20367;-83
2023/05/30 07:38:36;;;;;;;8.25;4.38;;;16.60;73.20;;;;;;5053367;28;20032;-83
2023/05/30 07:41:01;;;;;;;9.38;5.20;;;16.60;73.20;;;;;;5053162;28;20020;-83
2023/05/30 07:43:27;;;;;;;8.07;4.93;;;16.60;73.30;;;;;;5053311;28;20028;-84
2023/05/30 07:45:53;;;;;;;9.73;5.50;;;16.60;73.20;;;;;;5053540;28;20379;-83
2023/05/30 07:48:18;;;;;;;8.90;5.10;;;16.60;73.20;;;;;;5071305;28;20059;-83
2023/05/30 07:50:44;;;;;;;7.97;4.93;;;16.70;73.20;;;;;;5053273;28;20481;-83
2023/05/30 07:53:10;;;;;;;9.75;5.50;;;16.70;73.10;;;;;;5053239;28;20043;-83
2023/05/30 07:55:35;;;;;;;8.90;5.18;;;16.70;73.10;;;;;;5054894;28;20099;-83
2023/05/30 07:58:01;;;;;;;9.50;5.25;;;16.70;73.00;;;;;;5075185;28;20425;-83
2023/05/30 08:00:27;;;;;;;9.68;5.78;;;16.70;73.00;;;;;;5056607;28;20052;-83
2023/05/30 08:02:53;;;;;;;11.30;5.88;;;16.70;73.00;;;;;;5056876;28;20025;-83
2023/05/30 08:05:18;;;;;;;9.02;5.07;;;16.70;73.10;;;;;;5074764;28;20070;-83
2023/05/30 08:07:43;;;;;;;9.85;5.53;;;16.70;73.10;;;;;;5074646;28;20363;-83
2023/05/30 08:10:09;;;;;;;8.55;5.50;;;16.70;73.10;;;;;;5056528;28;20033;-83
2023/05/30 08:12:34;;;;;;;9.27;5.65;;;16.70;73.10;;;;;;5056598;28;20020;-83
2023/05/30 08:15:00;;;;;;;9.23;5.45;;;16.80;73.10;;;;;;5074802;28;20432;-83
2023/05/30 08:17:27;;;;;;;9.77;5.63;;;16.80;73.00;;;;;;5056563;28;20020;-83
2023/05/30 08:19:53;;;;;;;9.73;5.82;;;16.80;72.90;;;;;;5056558;28;20597;-83
2023/05/30 08:22:23;;;;;;;8.70;5.38;;;16.90;72.90;;;;;;5056753;28;20079;-83
2023/05/30 08:24:54;;;;;;;8.85;5.68;;;16.90;72.80;;;;;;5056386;28;20032;-85
2023/05/30 08:27:21;;;;;;;9.45;6.03;;;16.90;72.70;;;;;;5056589;28;20440;-83
2023/05/30 08:29:49;;;;;;;9.52;6.15;;;16.90;72.60;;;;;;5056331;28;20025;-84
2023/05/30 08:32:15;;;;;;;8.82;5.95;;;16.90;72.60;;;;;;5056364;28;20089;-84
2023/05/30 08:34:41;;;;;;;9.70;6.30;;;17.00;72.60;;;;;;5056317;28;20020;-83
2023/05/30 08:37:07;;;;;;;9.65;6.18;;;17.00;72.60;;;;;;5074346;28;20017;-83
2023/05/30 08:39:33;;;;;;;8.20;5.53;;;17.00;72.50;;;;;;5073800;28;20025;-84
2023/05/30 08:42:00;;;;;;;9.50;5.90;;;17.00;72.50;;;;;;5056288;28;20024;-83
2023/05/30 08:44:27;;;;;;;8.05;5.63;;;17.00;72.40;;;;;;5055801;28;20058;-84
2023/05/30 08:46:52;;;;;;;9.57;6.00;;;17.10;72.40;;;;;;5056267;28;20246;-83
2023/05/30 08:49:21;;;;;;;9.13;5.85;;;17.10;72.40;;;;;;5055867;28;20502;-83
2023/05/30 08:51:48;;;;;;;8.75;5.88;;;17.10;72.40;;;;;;5073986;28;20535;-82
2023/05/30 08:54:29;;;;;;;10.15;6.18;;;17.10;72.40;;;;;;5055803;28;20470;-84
2023/05/30 08:57:04;;;;;;;9.25;5.90;;;17.10;72.30;;;;;;5073977;28;20024;-83
2023/05/30 08:59:31;;;;;;;8.30;5.40;;;17.10;72.20;;;;;;5073690;28;20032;-83
2023/05/30 09:01:57;;;;;;;9.70;6.28;;;17.20;72.20;;;;;;5055942;28;20082;-83
2023/05/30 09:04:24;;;;;;;8.63;5.57;;;17.20;72.10;;;;;;5055624;28;20094;-83
2023/05/30 09:06:51;;;;;;;9.82;5.80;;;17.20;72.00;;;;;;5055627;28;20028;-83
2023/05/30 09:09:18;;;;;;;9.65;5.63;;;17.30;71.90;;;;;;5055628;28;20024;-83
2023/05/30 09:11:43;;;;;;;9.30;5.85;;;17.30;71.80;;;;;;5055644;28;20097;-83
2023/05/30 09:14:09;;;;;;;8.95;5.95;;;17.30;71.90;;;;;;5055502;28;20075;-83
2023/05/30 09:16:35;;;;;;;10.45;5.97;;;17.20;72.00;;;;;;5055555;28;20141;-83
2023/05/30 09:19:00;;;;;;;9.60;6.00;;;17.20;72.30;;;;;;5073386;28;20050;-83
2023/05/30 09:21:27;;;;;;;9.93;6.07;;;17.20;72.30;;;;;;5055512;28;20029;-83
2023/05/30 09:23:52;;;;;;;8.55;5.47;;;17.20;72.30;;;;;;5113787;23;20032;-84
2023/05/30 09:26:18;;;;;;;8.93;5.93;;;17.20;72.30;;;;;;5056834;28;20102;-84
2023/05/30 09:28:47;;;;;;;9.18;6.03;;;17.20;72.50;;;;;;5074679;28;20098;-84
2023/05/30 09:31:14;;;;;;;10.07;5.97;;;17.20;72.50;;;;;;5056347;28;20031;-84
2023/05/30 09:33:40;;;;;;;9.63;5.85;;;17.20;72.60;;;;;;5076898;28;20024;-84
2023/05/30 09:36:07;;;;;;;9.93;5.60;;;17.20;72.60;;;;;;5076125;28;20031;-84
2023/05/30 09:38:32;;;;;;;9.25;6.03;;;17.20;72.60;;;;;;5076182;28;20059;-84
2023/05/30 09:41:04;;;;;;;9.68;6.07;;;17.20;72.50;;;;;;5094275;28;20024;-84
2023/05/30 09:43:31;;;;;;;9.02;5.55;;;17.20;72.50;;;;;;5094344;28;20020;-84
2023/05/30 09:45:56;;;;;;;9.02;6.10;;;17.20;72.60;;;;;;5075981;28;20119;-84
2023/05/30 09:48:22;;;;;;;8.60;5.68;;;17.20;72.70;;;;;;5075794;28;20455;-84
2023/05/30 09:50:51;;;;;;;9.15;6.53;;;17.20;72.60;;;;;;5075769;28;20485;-84
2023/05/30 09:53:17;;;;;;;9.00;5.65;;;17.20;72.60;;;;;;5075607;28;20018;-85
2023/05/30 09:55:42;;;;;;;10.00;6.40;;;17.20;72.70;;;;;;5093548;28;20024;-85
2023/05/30 09:58:18;;;;;;;8.35;5.65;;;17.20;72.60;;;;;;5075539;28;20031;-84
2023/05/30 10:00:55;;;;;;;8.00;5.13;;;17.20;72.80;;;;;;5093140;28;20016;-84
2023/05/30 10:03:40;;;;;;;9.63;5.78;;;17.20;72.70;;;;;;5075328;28;20020;-84
2023/05/30 10:06:13;;;;;;;9.40;6.10;;;17.20;72.80;;;;;;5093346;28;20016;-84
2023/05/30 10:08:41;;;;;;;8.57;5.88;;;17.20;72.80;;;;;;5075167;28;20028;-84
2023/05/30 10:11:08;;;;;;;8.98;5.68;;;17.20;72.80;;;;;;5074683;28;20024;-84
2023/05/30 10:13:33;;;;;;;9.13;5.70;;;17.10;72.70;;;;;;5075045;28;20485;-84
2023/05/30 10:16:01;;;;;;;9.15;5.82;;;17.10;72.80;;;;;;5093412;28;20028;-84
2023/05/30 10:18:29;;;;;;;8.82;5.50;;;17.10;72.80;;;;;;5075145;28;20487;-84
2023/05/30 10:20:57;;;;;;;8.35;5.43;;;17.10;73.00;;;;;;5093073;28;20055;-84
2023/05/30 10:23:23;;;;;;;9.02;5.70;;;17.10;73.40;;;;;;5093494;28;20367;-83
2023/05/30 10:25:54;;;;;;;8.82;5.82;;;17.10;72.90;;;;;;5075069;28;20032;-84
2023/05/30 10:28:26;;;;;;;8.00;5.18;;;17.10;73.00;;;;;;5074916;28;20060;-83
2023/05/30 10:30:52;;;;;;;9.07;5.47;;;17.20;72.90;;;;;;5075248;28;20020;-83
2023/05/30 10:33:20;;;;;;;9.02;5.70;;;17.20;72.80;;;;;;5075101;28;20542;-83
2023/05/30 10:35:47;;;;;;;8.68;5.63;;;17.20;72.70;;;;;;5075215;28;20496;-84
2023/05/30 10:38:13;;;;;;;8.13;5.28;;;17.20;72.70;;;;;;5074817;28;20447;-83
2023/05/30 10:41:06;;;;;;;8.70;5.15;;;17.30;72.60;;;;;;5074706;28;20055;-84
2023/05/30 10:43:53;;;;;;;8.25;5.40;;;17.30;72.50;;;;;;5074894;28;20035;-83
2023/05/30 10:46:38;;;;;;;8.45;5.82;;;17.30;73.00;;;;;;5074800;28;20028;-84
2023/05/30 10:49:07;;;;;;;8.57;5.68;;;17.40;72.30;;;;;;5034276;28;20036;-81
2023/05/30 10:52:02;;;;;;;7.80;5.35;;;17.40;72.30;;;;;;5074685;28;20024;-84
2023/05/30 10:54:32;;;;;;;8.57;5.40;;;17.40;72.30;;;;;;5092782;28;20031;-83
2023/05/30 10:57:00;;;;;;;9.70;6.07;;;17.30;72.20;;;;;;5092839;28;20035;-83
2023/05/30 10:59:26;;;;;;;8.23;5.43;;;17.30;72.30;;;;;;5074493;28;20031;-83
2023/05/30 11:01:59;;;;;;;8.75;5.38;;;17.30;72.50;;;;;;5092636;28;20024;-84
2023/05/30 11:04:38;;;;;;;8.73;5.72;;;17.30;72.60;;;;;;5074433;28;20023;-83
2023/05/30 11:07:05;;;;;;;8.93;5.65;;;17.20;72.70;;;;;;5074465;28;20455;-84
2023/05/30 11:09:31;;;;;;;9.27;5.90;;;17.20;72.80;;;;;;5074194;28;20028;-83
2023/05/30 11:11:59;;;;;;;7.82;4.97;;;17.20;72.90;;;;;;5092432;28;20016;-83
2023/05/30 11:14:26;;;;;;;9.18;5.82;;;17.20;73.00;;;;;;5092425;28;20504;-83
2023/05/30 11:16:54;;;;;;;10.18;6.00;;;17.20;73.00;;;;;;5075372;28;20025;-84
2023/05/30 11:19:24;;;;;;;8.60;5.90;;;17.20;73.00;;;;;;5077909;28;20024;-84
2023/05/30 11:21:53;;;;;;;8.30;5.90;;;17.20;73.10;;;;;;5095514;28;20504;-84
2023/05/30 11:24:20;;;;;;;7.72;5.25;;;17.20;73.10;;;;;;5077361;28;20396;-84
2023/05/30 11:27:13;;;;;;;7.80;5.47;;;17.10;73.10;;;;;;5095484;28;20021;-83
2023/05/30 11:29:47;;;;;;;7.95;5.57;;;17.20;73.10;;;;;;5076819;28;20109;-84
2023/05/30 11:32:23;;;;;;;8.55;5.43;;;17.20;73.10;;;;;;5080582;28;20020;-83
2023/05/30 11:35:00;;;;;;;8.73;5.72;;;17.20;73.10;;;;;;5080536;28;20070;-83
2023/05/30 11:37:27;;;;;;;8.50;5.55;;;17.20;73.10;;;;;;5080760;28;20031;-83
2023/05/30 11:39:56;;;;;;;8.95;5.93;;;17.20;73.10;;;;;;5080621;28;20109;-82
2023/05/30 11:42:22;;;;;;;8.45;5.22;;;17.20;73.10;;;;;;5098802;28;20149;-82
2023/05/30 11:44:48;;;;;;;7.88;5.28;;;17.20;73.10;;;;;;5098489;28;20048;-83
2023/05/30 11:47:15;;;;;;;8.52;5.78;;;17.20;73.10;;;;;;5080365;28;20161;-84
2023/05/30 11:49:45;;;;;;;7.30;4.90;;;17.20;73.10;;;;;;5079679;28;20089;-84
2023/05/30 11:52:12;;;;;;;8.88;5.60;;;17.20;73.00;;;;;;5079802;28;20170;-83
2023/05/30 11:54:39;;;;;;;8.32;5.80;;;17.20;73.00;;;;;;5079558;28;20020;-84
2023/05/30 11:57:06;;;;;;;8.80;5.60;;;17.20;73.00;;;;;;5079586;28;20063;-83
2023/05/30 11:59:32;;;;;;;7.95;5.22;;;17.30;73.00;;;;;;5079538;28;20031;-84
2023/05/30 12:01:59;;;;;;;8.68;5.55;;;17.30;73.10;;;;;;5079625;28;20400;-82
2023/05/30 12:04:26;;;;;;;8.38;5.50;;;17.20;73.00;;;;;;5079343;28;20031;-83
2023/05/30 12:06:56;;;;;;;9.02;5.55;;;17.20;73.00;;;;;;5079121;28;20028;-84
2023/05/30 12:09:21;;;;;;;8.23;5.47;;;17.20;73.00;;;;;;5079305;28;20035;-84
2023/05/30 12:11:58;;;;;;;8.65;5.30;;;17.20;73.00;;;;;;5078996;28;20020;-84
2023/05/30 12:14:44;;;;;;;7.90;4.88;;;17.30;73.20;;;;;;5098635;28;20020;-84
2023/05/30 12:17:12;;;;;;;7.40;4.97;;;17.20;73.10;;;;;;5098746;28;20071;-84
2023/05/30 12:19:37;;;;;;;8.23;5.05;;;17.30;73.60;;;;;;5079959;28;20024;-84
2023/05/30 12:22:06;;;;;;;8.13;5.03;;;17.30;73.00;;;;;;5079637;28;20435;-83
2023/05/30 12:24:37;;;;;;;7.60;5.00;;;17.30;72.90;;;;;;5098433;28;20071;-83
2023/05/30 12:27:05;;;;;;;;;;;17.30;72.90;;;;;;5080036;28;20446;-84
2023/05/30 12:29:33;;;;;;;7.65;5.00;;;17.30;72.90;;;;;;5096615;28;19915;-84
2023/05/30 12:31:59;;;;;;;7.88;5.10;;;17.30;72.90;;;;;;5080033;28;20095;-83
2023/05/30 12:34:24;;;;;;;7.88;4.88;;;17.40;72.90;;;;;;5079767;28;20056;-83
2023/05/30 12:36:55;;;;;;;8.43;5.38;;;17.30;72.90;;;;;;5079129;28;20032;-84
2023/05/30 12:39:21;;;;;;;7.30;4.80;;;17.30;72.90;;;;;;5079229;28;20043;-83
2023/05/30 12:41:46;;;;;;;8.02;4.90;;;17.30;72.90;;;;;;5078665;28;20115;-83
2023/05/30 12:44:17;;;;;;;7.82;5.07;;;17.30;73.00;;;;;;5097338;28;20081;-82
2023/05/30 12:46:42;;;;;;;8.85;5.22;;;17.20;73.10;;;;;;5097696;28;20025;-83
2023/05/30 12:49:09;;;;;;;8.35;5.40;;;17.20;73.30;;;;;;5078392;28;20032;-83
2023/05/30 12:51:35;;;;;;;8.02;5.60;;;17.20;73.70;;;;;;5079075;28;20111;-83
2023/05/30 12:54:00;;;;;;;8.55;5.82;;;17.20;73.50;;;;;;5096869;28;20114;-83
2023/05/30 12:56:26;;;;;;;8.73;5.47;;;17.10;73.50;;;;;;5078647;28;20016;-83
2023/05/30 12:58:52;;;;;;;8.40;5.30;;;17.10;73.60;;;;;;5078203;28;20485;-82